createdAt,value
2019-03-21T00:00:57.599Z,99.99
2019-03-21T00:01:57.579Z,99.99
2019-03-21T00:02:57.484Z,99.99
2019-03-21T00:03:57.425Z,99.99
2019-03-21T00:04:57.370Z,99.99
2019-03-21T00:05:57.311Z,99.99
2019-03-21T00:06:57.292Z,99.99
2019-03-21T00:07:57.195Z,99.99
2019-03-21T00:08:57.145Z,99.99
2019-03-21T00:09:57.112Z,99.99
2019-03-21T00:10:57.023Z,99.99
2019-03-21T00:11:56.966Z,99.99
2019-03-21T00:12:56.947Z,99.99
2019-03-21T00:14:06.573Z,99.99
2019-03-21T00:14:56.795Z,99.99
2019-03-21T00:15:56.745Z,99.99
2019-03-21T00:16:56.682Z,99.99
2019-03-21T00:17:56.654Z,99.99
2019-03-21T00:18:56.563Z,99.99
2019-03-21T00:19:56.511Z,99.99
2019-03-21T00:20:56.495Z,99.99
2019-03-21T00:21:56.394Z,99.99
2019-03-21T00:22:56.335Z,99.99
2019-03-21T00:23:56.278Z,99.99
2019-03-21T00:24:56.218Z,99.99
2019-03-21T00:25:56.205Z,99.99
2019-03-21T00:26:56.107Z,99.99
2019-03-21T00:27:56.050Z,99.99
2019-03-21T00:28:55.991Z,99.99
2019-03-21T00:29:55.934Z,99.99
2019-03-21T00:30:55.910Z,99.99
2019-03-21T00:31:55.816Z,99.99
2019-03-21T00:32:55.811Z,99.99
2019-03-21T00:33:55.733Z,99.99
2019-03-21T00:34:55.675Z,99.99
2019-03-21T00:35:55.589Z,99.99
2019-03-21T00:36:55.529Z,99.99
2019-03-21T00:37:55.501Z,99.99
2019-03-21T00:38:55.418Z,99.99
2019-03-21T00:39:55.388Z,99.99
2019-03-21T00:40:55.300Z,99.99
2019-03-21T00:41:55.240Z,99.99
2019-03-21T00:42:55.186Z,99.99
2019-03-21T00:43:55.127Z,99.99
2019-03-21T00:44:55.103Z,99.99
2019-03-21T00:45:55.014Z,99.99
2019-03-21T00:46:54.994Z,99.99
2019-03-21T00:47:54.895Z,99.99
2019-03-21T00:48:54.839Z,99.99
2019-03-21T00:49:54.780Z,99.99
2019-03-21T00:50:54.724Z,99.99
2019-03-21T00:51:54.697Z,99.99
2019-03-21T00:52:54.608Z,99.99
2019-03-21T00:53:54.556Z,99.99
2019-03-21T00:54:54.493Z,99.99
2019-03-21T00:55:54.470Z,99.99
2019-03-21T00:56:54.378Z,99.99
2019-03-21T00:57:54.321Z,99.99
2019-03-21T00:58:54.263Z,99.99
2019-03-21T00:59:54.206Z,99.99
2019-03-21T01:00:54.183Z,99.99
2019-03-21T01:01:54.091Z,99.99
2019-03-21T01:02:54.066Z,99.99
2019-03-21T01:03:53.976Z,99.99
2019-03-21T01:04:53.917Z,99.99
2019-03-21T01:05:53.867Z,99.99
2019-03-21T01:06:53.802Z,99.99
2019-03-21T01:07:53.782Z,99.99
2019-03-21T01:08:53.687Z,99.99
2019-03-21T01:09:53.631Z,99.99
2019-03-21T01:10:53.573Z,99.99
2019-03-21T01:11:53.556Z,99.99
2019-03-21T01:12:53.496Z,99.99
2019-03-21T01:13:53.403Z,99.99
2019-03-21T01:14:53.342Z,99.99
2019-03-21T01:15:53.289Z,99.99
2019-03-21T01:16:53.260Z,99.99
2019-03-21T01:17:53.168Z,99.99
2019-03-21T01:18:53.158Z,99.99
2019-03-21T01:19:53.058Z,99.99
2019-03-21T01:20:52.997Z,99.99
2019-03-21T01:21:52.944Z,99.99
2019-03-21T01:22:52.883Z,99.99
2019-03-21T01:23:52.927Z,99.99
2019-03-21T01:24:52.766Z,99.99
2019-03-21T01:25:52.710Z,99.99
2019-03-21T01:26:52.656Z,99.99
2019-03-21T01:27:52.594Z,99.99
2019-03-21T01:28:52.576Z,99.99
2019-03-21T01:29:52.487Z,99.99
2019-03-21T01:30:52.421Z,99.99
2019-03-21T01:31:54.528Z,99.99
2019-03-21T01:32:52.308Z,99.99
2019-03-21T01:33:52.283Z,99.99
2019-03-21T01:34:52.191Z,99.99
2019-03-21T01:35:52.131Z,99.99
2019-03-21T01:36:52.075Z,99.99
2019-03-21T01:37:52.020Z,99.99
2019-03-21T01:38:51.990Z,99.99
2019-03-21T01:39:51.908Z,99.99
2019-03-21T01:40:51.844Z,99.99
2019-03-21T01:41:51.785Z,99.99
2019-03-21T01:42:51.726Z,99.99
2019-03-21T01:43:51.705Z,99.99
2019-03-21T01:44:51.617Z,99.99
2019-03-21T01:45:51.565Z,99.99
2019-03-21T01:46:51.538Z,99.99
2019-03-21T01:47:51.443Z,99.99
2019-03-21T01:48:51.381Z,99.99
2019-03-21T01:49:51.354Z,99.99
2019-03-21T01:50:51.264Z,99.99
2019-03-21T01:51:51.208Z,99.99
2019-03-21T01:52:51.151Z,99.99
2019-03-21T01:53:51.095Z,99.99
2019-03-21T01:54:51.065Z,99.99
2019-03-21T01:55:50.977Z,99.99
2019-03-21T01:56:50.920Z,99.99
2019-03-21T01:57:50.892Z,99.99
2019-03-21T01:58:50.804Z,99.99
2019-03-21T01:59:50.748Z,99.99
2019-03-21T02:00:50.690Z,99.99
2019-03-21T02:01:50.634Z,99.99
2019-03-21T02:02:50.603Z,99.99
2019-03-21T02:03:50.515Z,99.99
2019-03-21T02:04:50.461Z,99.99
2019-03-21T02:05:50.399Z,99.99
2019-03-21T02:06:50.382Z,99.99
2019-03-21T02:07:50.286Z,99.99
2019-03-21T02:08:50.261Z,99.99
2019-03-21T02:09:50.167Z,99.99
2019-03-21T02:10:50.115Z,99.99
2019-03-21T02:11:50.084Z,99.99
2019-03-21T02:12:49.997Z,99.99
2019-03-21T02:13:49.969Z,99.99
2019-03-21T02:14:52.317Z,99.99
2019-03-21T02:15:50.715Z,99.99
2019-03-21T02:16:49.807Z,99.99
2019-03-21T02:17:49.706Z,99.99
2019-03-21T02:18:49.649Z,99.99
2019-03-21T02:19:49.593Z,99.99
2019-03-21T02:20:49.532Z,99.99
2019-03-21T02:21:49.509Z,99.99
2019-03-21T02:22:49.414Z,99.99
2019-03-21T02:23:49.359Z,99.99
2019-03-21T02:24:49.301Z,99.99
2019-03-21T02:25:49.288Z,99.99
2019-03-21T02:26:49.184Z,99.99
2019-03-21T02:27:49.196Z,99.99
2019-03-21T02:28:49.067Z,99.99
2019-03-21T02:29:49.009Z,99.99
2019-03-21T02:30:48.984Z,99.99
2019-03-21T02:31:48.895Z,99.99
2019-03-21T02:32:48.866Z,99.99
2019-03-21T02:33:48.780Z,99.99
2019-03-21T02:34:48.752Z,99.99
2019-03-21T02:35:48.663Z,99.99
2019-03-21T02:36:48.608Z,99.99
2019-03-21T02:37:48.580Z,99.99
2019-03-21T02:38:48.492Z,99.99
2019-03-21T02:39:58.607Z,99.99
2019-03-21T02:40:48.372Z,99.99
2019-03-21T02:41:48.318Z,99.99
2019-03-21T02:42:48.288Z,99.99
2019-03-21T02:43:48.204Z,99.99
2019-03-21T02:44:48.189Z,99.99
2019-03-21T02:45:48.088Z,99.99
2019-03-21T02:46:48.026Z,99.99
2019-03-21T02:47:48.003Z,99.99
2019-03-21T02:48:47.911Z,99.99
2019-03-21T02:49:47.852Z,99.99
2019-03-21T02:50:47.795Z,99.99
2019-03-21T02:51:47.742Z,99.99
2019-03-21T02:52:47.709Z,99.99
2019-03-21T02:53:47.661Z,99.99
2019-03-21T02:54:47.562Z,99.99
2019-03-21T02:55:47.600Z,99.99
2019-03-21T02:56:47.448Z,99.99
2019-03-21T02:57:47.392Z,99.99
2019-03-21T02:58:47.366Z,99.99
2019-03-21T02:59:47.324Z,99.99
2019-03-21T03:00:47.235Z,99.99
2019-03-21T03:01:47.160Z,99.99
2019-03-21T03:02:47.155Z,99.99
2019-03-21T03:03:47.051Z,99.99
2019-03-21T03:04:46.985Z,99.99
2019-03-21T03:05:46.923Z,99.99
2019-03-21T03:06:46.871Z,99.99
2019-03-21T03:07:46.845Z,99.99
2019-03-21T03:08:46.750Z,99.99
2019-03-21T03:09:46.691Z,99.99
2019-03-21T03:10:46.631Z,99.99
2019-03-21T03:11:46.601Z,99.99
2019-03-21T03:12:46.518Z,99.99
2019-03-21T03:13:46.491Z,99.99
2019-03-21T03:14:46.399Z,99.99
2019-03-21T03:15:46.344Z,99.99
2019-03-21T03:16:46.292Z,99.99
2019-03-21T03:17:46.230Z,99.99
2019-03-21T03:18:46.203Z,99.99
2019-03-21T03:19:46.114Z,99.99
2019-03-21T03:20:46.054Z,99.99
2019-03-21T03:21:45.995Z,99.99
2019-03-21T03:22:45.938Z,99.99
2019-03-21T03:23:45.909Z,99.99
2019-03-21T03:24:45.823Z,99.99
2019-03-21T03:25:45.762Z,99.99
2019-03-21T03:26:45.738Z,99.99
2019-03-21T03:27:45.653Z,99.99
2019-03-21T03:28:45.596Z,99.99
2019-03-21T03:29:45.572Z,99.99
2019-03-21T03:30:45.479Z,99.99
2019-03-21T03:31:45.509Z,99.99
2019-03-21T03:32:45.393Z,99.99
2019-03-21T03:33:45.298Z,99.99
2019-03-21T03:34:45.289Z,99.99
2019-03-21T03:35:45.222Z,99.99
2019-03-21T03:36:45.131Z,99.99
2019-03-21T03:37:45.072Z,99.99
2019-03-21T03:38:45.010Z,99.99
2019-03-21T03:39:44.947Z,99.99
2019-03-21T03:40:44.922Z,99.99
2019-03-21T03:41:44.834Z,99.99
2019-03-21T03:42:44.773Z,99.99
2019-03-21T03:43:44.718Z,99.99
2019-03-21T03:44:44.662Z,99.99
2019-03-21T03:45:44.638Z,99.99
2019-03-21T03:46:44.550Z,99.99
2019-03-21T03:47:44.486Z,99.99
2019-03-21T03:48:44.428Z,99.99
2019-03-21T03:49:44.368Z,99.99
2019-03-21T03:50:44.351Z,99.99
2019-03-21T03:51:44.259Z,99.99
2019-03-21T03:52:44.195Z,99.99
2019-03-21T03:53:44.138Z,99.99
2019-03-21T03:54:44.081Z,99.99
2019-03-21T03:55:44.045Z,99.99
2019-03-21T03:56:43.961Z,99.99
2019-03-21T03:57:43.901Z,99.99
2019-03-21T03:58:43.842Z,99.99
2019-03-21T03:59:43.820Z,99.99
2019-03-21T04:00:43.729Z,99.99
2019-03-21T04:01:43.779Z,99.99
2019-03-21T04:02:43.643Z,99.99
2019-03-21T04:03:43.558Z,99.99
2019-03-21T04:04:43.501Z,99.99
2019-03-21T04:05:43.437Z,99.99
2019-03-21T04:06:43.377Z,99.99
2019-03-21T04:07:43.344Z,99.99
2019-03-21T04:08:43.267Z,99.99
2019-03-21T04:09:43.236Z,99.99
2019-03-21T04:10:43.151Z,99.99
2019-03-21T04:11:43.088Z,99.99
2019-03-21T04:12:43.061Z,99.99
2019-03-21T04:13:42.975Z,99.99
2019-03-21T04:14:42.916Z,99.99
2019-03-21T04:15:52.405Z,99.99
2019-03-21T04:16:42.802Z,99.99
2019-03-21T04:17:42.781Z,99.99
2019-03-21T04:18:42.685Z,99.99
2019-03-21T04:19:42.619Z,99.99
2019-03-21T04:20:42.562Z,99.99
2019-03-21T04:21:42.503Z,99.99
2019-03-21T04:22:42.488Z,99.99
2019-03-21T04:23:42.395Z,99.99
2019-03-21T04:24:42.331Z,99.99
2019-03-21T04:25:42.276Z,99.99
2019-03-21T04:26:42.217Z,99.99
2019-03-21T04:27:42.214Z,99.99
2019-03-21T04:28:42.098Z,99.99
2019-03-21T04:29:42.049Z,99.99
2019-03-21T04:30:41.979Z,99.99
2019-03-21T04:31:41.920Z,99.99
2019-03-21T04:32:41.900Z,99.99
2019-03-21T04:33:41.810Z,99.99
2019-03-21T04:34:41.753Z,99.99
2019-03-21T04:35:41.688Z,99.99
2019-03-21T04:36:41.635Z,99.99
2019-03-21T04:37:41.603Z,99.99
2019-03-21T04:38:41.553Z,99.99
2019-03-21T04:39:41.452Z,99.99
2019-03-21T04:40:41.401Z,99.99
2019-03-21T04:41:41.338Z,99.99
2019-03-21T04:42:41.282Z,99.99
2019-03-21T04:43:41.255Z,99.99
2019-03-21T04:44:41.162Z,99.99
2019-03-21T04:45:41.105Z,99.99
2019-03-21T04:46:41.053Z,99.99
2019-03-21T04:47:40.988Z,99.99
2019-03-21T04:48:40.962Z,99.99
2019-03-21T04:49:40.907Z,99.99
2019-03-21T04:50:40.813Z,99.99
2019-03-21T04:51:40.756Z,99.99
2019-03-21T04:52:40.696Z,99.99
2019-03-21T04:53:40.637Z,99.99
2019-03-21T04:54:40.612Z,99.99
2019-03-21T04:55:40.530Z,99.99
2019-03-21T04:56:40.473Z,99.99
2019-03-21T04:57:40.405Z,99.99
2019-03-21T04:58:40.345Z,99.99
2019-03-21T04:59:40.322Z,99.99
2019-03-21T05:00:40.260Z,99.99
2019-03-21T05:01:40.175Z,99.99
2019-03-21T05:02:40.114Z,99.99
2019-03-21T05:03:40.058Z,99.99
2019-03-21T05:04:40.000Z,99.99
2019-03-21T05:05:39.966Z,99.99
2019-03-21T05:06:39.880Z,99.99
2019-03-21T05:07:39.822Z,99.99
2019-03-21T05:08:39.795Z,99.99
2019-03-21T05:09:39.706Z,99.99
2019-03-21T05:10:39.647Z,99.99
2019-03-21T05:11:39.615Z,99.99
2019-03-21T05:12:39.527Z,99.99
2019-03-21T05:13:39.471Z,99.99
2019-03-21T05:14:39.412Z,99.99
2019-03-21T05:15:39.358Z,99.99
2019-03-21T05:16:39.322Z,99.99
2019-03-21T05:17:39.235Z,99.99
2019-03-21T05:18:39.177Z,99.99
2019-03-21T05:19:39.118Z,99.99
2019-03-21T05:20:39.060Z,99.99
2019-03-21T05:21:39.034Z,99.99
2019-03-21T05:22:38.944Z,99.99
2019-03-21T05:23:38.884Z,99.99
2019-03-21T05:24:38.855Z,99.99
2019-03-21T05:25:38.769Z,99.99
2019-03-21T05:26:38.712Z,99.99
2019-03-21T05:27:38.651Z,99.99
2019-03-21T05:28:38.589Z,99.99
2019-03-21T05:29:38.569Z,99.99
2019-03-21T05:30:38.506Z,99.99
2019-03-21T05:31:38.419Z,99.99
2019-03-21T05:32:38.356Z,99.99
2019-03-21T05:33:38.299Z,99.99
2019-03-21T05:34:38.242Z,99.99
2019-03-21T05:35:38.211Z,99.99
2019-03-21T05:36:38.171Z,99.99
2019-03-21T05:37:38.072Z,99.99
2019-03-21T05:38:38.012Z,99.99
2019-03-21T05:39:37.973Z,99.99
2019-03-21T05:40:37.942Z,99.99
2019-03-21T05:41:37.839Z,99.99
2019-03-21T05:42:37.773Z,99.99
2019-03-21T05:43:37.743Z,99.99
2019-03-21T05:44:37.652Z,99.99
2019-03-21T05:45:37.595Z,99.99
2019-03-21T05:46:37.540Z,99.99
2019-03-21T05:47:37.478Z,99.99
2019-03-21T05:48:37.457Z,99.99
2019-03-21T05:49:37.363Z,99.99
2019-03-21T05:50:37.327Z,99.99
2019-03-21T05:51:37.277Z,99.99
2019-03-21T05:52:37.219Z,99.99
2019-03-21T05:53:37.128Z,99.99
2019-03-21T05:54:37.068Z,99.99
2019-03-21T05:55:37.009Z,99.99
2019-03-21T05:56:36.993Z,99.99
2019-03-21T05:57:36.896Z,99.99
2019-03-21T05:58:36.834Z,99.99
2019-03-21T05:59:36.781Z,99.99
2019-03-21T06:00:36.720Z,99.99
2019-03-21T06:01:36.703Z,99.99
2019-03-21T06:02:36.601Z,99.99
2019-03-21T06:03:36.543Z,99.99
2019-03-21T06:04:36.488Z,99.99
2019-03-21T06:05:36.426Z,99.99
2019-03-21T06:06:36.400Z,99.99
2019-03-21T06:07:36.311Z,99.99
2019-03-21T06:08:36.285Z,99.99
2019-03-21T06:09:36.197Z,99.99
2019-03-21T06:10:36.134Z,99.99
2019-03-21T06:11:36.113Z,99.99
2019-03-21T06:12:36.141Z,99.99
2019-03-21T06:13:35.968Z,99.99
2019-03-21T06:14:35.903Z,99.99
2019-03-21T06:15:35.840Z,99.99
2019-03-21T06:16:37.812Z,99.99
2019-03-21T06:17:35.771Z,99.99
2019-03-21T06:18:35.670Z,99.99
2019-03-21T06:19:35.610Z,99.99
2019-03-21T06:20:35.608Z,99.99
2019-03-21T06:21:35.493Z,99.99
2019-03-21T06:22:35.470Z,99.99
2019-03-21T06:23:35.378Z,99.99
2019-03-21T06:24:35.320Z,99.99
2019-03-21T06:25:35.266Z,99.99
2019-03-21T06:26:35.227Z,99.99
2019-03-21T06:27:35.143Z,99.99
2019-03-21T06:28:35.086Z,99.99
2019-03-21T06:29:35.060Z,99.99
2019-03-21T06:30:34.970Z,99.99
2019-03-21T06:31:34.910Z,99.99
2019-03-21T06:32:34.853Z,99.99
2019-03-21T06:33:34.800Z,99.99
2019-03-21T06:34:34.772Z,99.99
2019-03-21T06:35:34.681Z,99.99
2019-03-21T06:36:34.659Z,99.99
2019-03-21T06:37:34.565Z,99.99
2019-03-21T06:38:34.506Z,99.99
2019-03-21T06:39:34.459Z,99.99
2019-03-21T06:40:34.424Z,99.99
2019-03-21T06:41:34.333Z,99.99
2019-03-21T06:42:34.278Z,99.99
2019-03-21T06:43:34.220Z,99.99
2019-03-21T06:44:34.202Z,99.99
2019-03-21T06:45:34.153Z,99.99
2019-03-21T06:46:34.053Z,99.99
2019-03-21T06:47:34.022Z,99.99
2019-03-21T06:48:33.933Z,99.99
2019-03-21T06:49:33.877Z,99.99
2019-03-21T06:50:33.820Z,99.99
2019-03-21T06:51:33.810Z,99.99
2019-03-21T06:52:33.706Z,99.99
2019-03-21T06:53:33.649Z,99.99
2019-03-21T06:54:33.588Z,99.99
2019-03-21T06:55:33.534Z,99.99
2019-03-21T06:56:33.504Z,99.99
2019-03-21T06:57:33.449Z,99.99
2019-03-21T06:58:33.390Z,99.99
2019-03-21T06:59:33.311Z,99.99
2019-03-21T07:00:33.253Z,99.99
2019-03-21T07:01:33.191Z,99.99
2019-03-21T07:02:33.134Z,99.99
2019-03-21T07:03:33.107Z,99.99
2019-03-21T07:04:33.019Z,99.99
2019-03-21T07:05:32.962Z,99.99
2019-03-21T07:06:32.906Z,99.99
2019-03-21T07:07:32.849Z,99.99
2019-03-21T07:08:32.826Z,99.99
2019-03-21T07:09:32.736Z,99.99
2019-03-21T07:10:32.689Z,99.99
2019-03-21T07:11:32.656Z,99.99
2019-03-21T07:12:32.591Z,99.99
2019-03-21T07:13:32.542Z,99.99
2019-03-21T07:14:32.453Z,99.99
2019-03-21T07:15:32.398Z,99.99
2019-03-21T07:16:32.342Z,99.99
2019-03-21T07:17:32.289Z,99.99
2019-03-21T07:18:32.265Z,99.99
2019-03-21T07:19:32.182Z,99.99
2019-03-21T07:20:32.132Z,99.99
2019-03-21T07:21:32.067Z,99.99
2019-03-21T07:22:32.008Z,99.99
2019-03-21T07:23:31.984Z,99.99
2019-03-21T07:24:31.940Z,99.99
2019-03-21T07:25:31.843Z,99.99
2019-03-21T07:26:31.789Z,99.02
2019-03-21T07:27:31.737Z,98.17
2019-03-21T07:28:31.682Z,97.50
2019-03-21T07:29:31.659Z,96.84
2019-03-21T07:30:31.569Z,97.78
2019-03-21T07:31:31.519Z,97.22
2019-03-21T07:32:33.539Z,97.60
2019-03-21T07:33:31.410Z,96.45
2019-03-21T07:34:31.386Z,96.65
2019-03-21T07:35:31.339Z,97.50
2019-03-21T07:36:31.246Z,98.55
2019-03-21T07:37:31.191Z,98.69
2019-03-21T07:38:31.136Z,99.64
2019-03-21T07:39:31.085Z,99.99
2019-03-21T07:40:31.072Z,99.99
2019-03-21T07:41:30.979Z,99.99
2019-03-21T07:42:30.921Z,99.99
2019-03-21T07:43:30.871Z,99.88
2019-03-21T07:44:30.815Z,99.84
2019-03-21T07:45:30.802Z,99.84
2019-03-21T07:46:32.058Z,99.74
2019-03-21T07:47:30.656Z,99.55
2019-03-21T07:48:30.607Z,98.13
2019-03-21T07:49:32.675Z,97.41
2019-03-21T07:50:30.528Z,96.70
2019-03-21T07:51:30.485Z,96.46
2019-03-21T07:52:30.397Z,96.08
2019-03-21T07:53:30.340Z,95.60
2019-03-21T07:54:30.290Z,94.74
2019-03-21T07:55:30.241Z,92.18
2019-03-21T07:56:30.223Z,90.46
2019-03-21T07:57:30.129Z,90.36
2019-03-21T07:58:30.078Z,89.13
2019-03-21T07:59:30.035Z,90.46
2019-03-21T08:00:29.970Z,90.36
2019-03-21T08:01:29.949Z,90.84
2019-03-21T08:02:29.867Z,91.65
2019-03-21T08:03:29.815Z,92.13
2019-03-21T08:04:29.764Z,90.89
2019-03-21T08:05:39.687Z,91.13
2019-03-21T08:06:29.683Z,90.55
2019-03-21T08:07:29.608Z,88.69
2019-03-21T08:08:29.561Z,86.35
2019-03-21T08:09:29.526Z,83.95
2019-03-21T08:10:29.483Z,81.36
2019-03-21T08:11:29.406Z,78.72
2019-03-21T08:12:29.353Z,74.30
2019-03-21T08:13:29.307Z,69.54
2019-03-21T08:14:29.295Z,68.05
2019-03-21T08:15:29.238Z,66.06
2019-03-21T08:16:29.159Z,63.51
2019-03-21T08:17:29.113Z,63.06
2019-03-21T08:18:29.101Z,61.40
2019-03-21T08:19:29.025Z,59.12
2019-03-21T08:20:28.978Z,57.39
2019-03-21T08:21:28.935Z,54.53
2019-03-21T08:22:28.933Z,53.59
2019-03-21T08:23:28.854Z,52.54
2019-03-21T08:24:28.811Z,51.70
2019-03-21T08:25:28.769Z,51.62
2019-03-21T08:26:28.729Z,48.83
2019-03-21T08:27:28.732Z,48.66
2019-03-21T08:28:28.652Z,48.01
2019-03-21T08:29:28.611Z,47.82
2019-03-21T08:30:28.569Z,46.20
2019-03-21T08:31:28.533Z,44.85
2019-03-21T08:32:28.526Z,44.66
2019-03-21T08:33:28.460Z,45.84
2019-03-21T08:34:28.419Z,42.56
2019-03-21T08:35:28.379Z,42.27
2019-03-21T08:36:28.377Z,42.56
2019-03-21T08:37:28.309Z,43.04
2019-03-21T08:38:28.271Z,43.84
2019-03-21T08:39:28.266Z,42.41
2019-03-21T08:40:28.196Z,42.41
2019-03-21T08:41:28.162Z,40.36
2019-03-21T08:42:28.125Z,41.83
2019-03-21T08:43:28.088Z,40.86
2019-03-21T08:44:28.085Z,39.70
2019-03-21T08:45:28.018Z,38.93
2019-03-21T08:46:27.978Z,39.41
2019-03-21T08:47:27.946Z,38.35
2019-03-21T08:48:27.922Z,37.38
2019-03-21T08:49:27.907Z,37.19
2019-03-21T08:50:27.838Z,37.10
2019-03-21T08:51:27.800Z,35.36
2019-03-21T08:52:27.764Z,34.68
2019-03-21T08:53:27.736Z,35.16
2019-03-21T08:54:27.725Z,36.13
2019-03-21T08:55:27.658Z,37.40
2019-03-21T08:56:27.618Z,36.63
2019-03-21T08:57:27.618Z,36.44
2019-03-21T08:58:27.547Z,34.31
2019-03-21T08:59:27.545Z,34.00
2019-03-21T09:00:34.187Z,35.76
2019-03-21T09:01:27.443Z,35.37
2019-03-21T09:02:27.409Z,37.42
2019-03-21T09:03:27.372Z,37.55
2019-03-21T09:04:27.365Z,36.58
2019-03-21T09:05:27.296Z,35.23
2019-03-21T09:06:27.304Z,35.93
2019-03-21T09:07:27.227Z,34.55
2019-03-21T09:08:27.187Z,34.28
2019-03-21T09:09:27.150Z,34.28
2019-03-21T09:10:27.113Z,33.51
2019-03-21T09:11:27.109Z,34.28
2019-03-21T09:12:27.077Z,34.59
2019-03-21T09:13:27.003Z,34.01
2019-03-21T09:14:26.971Z,33.81
2019-03-21T09:15:26.929Z,33.73
2019-03-21T09:16:26.895Z,34.02
2019-03-21T09:17:26.879Z,33.54
2019-03-21T09:18:26.819Z,33.44
2019-03-21T09:19:26.782Z,33.54
2019-03-21T09:20:26.745Z,31.29
2019-03-21T09:21:26.708Z,30.69
2019-03-21T09:22:27.568Z,31.18
2019-03-21T09:23:26.633Z,33.41
2019-03-21T09:24:26.595Z,33.22
2019-03-21T09:25:26.563Z,33.78
2019-03-21T09:26:26.560Z,34.78
2019-03-21T09:27:26.485Z,34.30
2019-03-21T09:28:26.446Z,34.80
2019-03-21T09:29:26.444Z,33.52
2019-03-21T09:30:26.371Z,33.62
2019-03-21T09:31:26.336Z,32.44
2019-03-21T09:32:26.374Z,32.15
2019-03-21T09:33:26.299Z,35.07
2019-03-21T09:34:26.220Z,33.80
2019-03-21T09:35:26.218Z,32.15
2019-03-21T09:36:26.143Z,31.67
2019-03-21T09:37:26.141Z,34.09
2019-03-21T09:38:26.071Z,33.70
2019-03-21T09:39:26.028Z,31.56
2019-03-21T09:40:25.992Z,31.56
2019-03-21T09:41:25.954Z,32.23
2019-03-21T09:42:25.949Z,31.26
2019-03-21T09:43:25.876Z,32.42
2019-03-21T09:44:25.835Z,32.71
2019-03-21T09:45:25.799Z,33.97
2019-03-21T09:46:25.793Z,33.20
2019-03-21T09:47:25.718Z,31.56
2019-03-21T09:48:25.722Z,32.62
2019-03-21T09:49:25.641Z,34.75
2019-03-21T09:50:25.614Z,34.47
2019-03-21T09:51:30.875Z,34.75
2019-03-21T09:52:25.522Z,35.52
2019-03-21T09:53:25.520Z,35.93
2019-03-21T09:54:25.450Z,35.54
2019-03-21T09:55:25.413Z,34.47
2019-03-21T09:56:25.408Z,33.69
2019-03-21T09:57:25.327Z,33.76
2019-03-21T09:58:25.291Z,34.27
2019-03-21T09:59:25.246Z,34.05
2019-03-21T10:00:25.210Z,32.68
2019-03-21T10:01:25.209Z,32.78
2019-03-21T10:02:25.128Z,33.34
2019-03-21T10:03:25.088Z,33.83
2019-03-21T10:04:25.047Z,34.79
2019-03-21T10:05:25.011Z,35.64
2019-03-21T10:06:25.093Z,36.22
2019-03-21T10:07:24.929Z,35.45
2019-03-21T10:08:24.889Z,33.91
2019-03-21T10:09:24.854Z,34.29
2019-03-21T10:10:24.806Z,36.98
2019-03-21T10:11:24.807Z,37.56
2019-03-21T10:12:24.738Z,35.63
2019-03-21T10:13:24.684Z,36.01
2019-03-21T10:14:24.650Z,36.88
2019-03-21T10:15:24.607Z,35.53
2019-03-21T10:16:24.596Z,36.50
2019-03-21T10:17:24.529Z,35.14
2019-03-21T10:18:24.483Z,34.08
2019-03-21T10:19:24.441Z,34.64
2019-03-21T10:20:24.406Z,34.55
2019-03-21T10:21:24.399Z,35.82
2019-03-21T10:22:24.319Z,34.76
2019-03-21T10:23:24.280Z,35.24
2019-03-21T10:24:24.238Z,36.50
2019-03-21T10:25:26.448Z,37.27
2019-03-21T10:26:24.186Z,37.08
2019-03-21T10:27:24.130Z,35.92
2019-03-21T10:28:24.106Z,36.50
2019-03-21T10:29:24.031Z,37.27
2019-03-21T10:30:23.988Z,37.46
2019-03-21T10:31:23.987Z,36.30
2019-03-21T10:32:23.957Z,36.69
2019-03-21T10:33:23.915Z,35.74
2019-03-21T10:34:23.826Z,35.72
2019-03-21T10:35:23.795Z,37.08
2019-03-21T10:36:23.783Z,37.00
2019-03-21T10:37:23.741Z,36.01
2019-03-21T10:38:23.661Z,35.92
2019-03-21T10:39:23.653Z,34.39
2019-03-21T10:40:23.583Z,34.39
2019-03-21T10:41:23.540Z,33.72
2019-03-21T10:42:23.501Z,33.72
2019-03-21T10:43:23.491Z,34.10
2019-03-21T10:44:23.421Z,34.48
2019-03-21T10:45:23.376Z,34.66
2019-03-21T10:46:23.338Z,34.38
2019-03-21T10:47:23.293Z,35.05
2019-03-21T10:48:23.649Z,33.89
2019-03-21T10:49:23.214Z,33.78
2019-03-21T10:50:23.171Z,35.24
2019-03-21T10:51:23.135Z,35.92
2019-03-21T10:52:23.119Z,35.94
2019-03-21T10:53:23.049Z,34.87
2019-03-21T10:54:23.762Z,34.76
2019-03-21T10:55:22.968Z,36.50
2019-03-21T10:56:22.956Z,34.66
2019-03-21T10:57:22.891Z,33.70
2019-03-21T10:58:22.849Z,33.89
2019-03-21T10:59:22.801Z,34.18
2019-03-21T11:00:22.770Z,34.08
2019-03-21T11:01:22.752Z,34.28
2019-03-21T11:02:22.679Z,33.31
2019-03-21T11:03:22.637Z,33.72
2019-03-21T11:04:22.600Z,35.55
2019-03-21T11:05:23.383Z,35.45
2019-03-21T11:06:22.553Z,34.78
2019-03-21T11:07:22.476Z,34.68
2019-03-21T11:08:22.434Z,34.18
2019-03-21T11:09:22.393Z,34.78
2019-03-21T11:10:22.353Z,34.39
2019-03-21T11:11:22.375Z,33.98
2019-03-21T11:12:22.279Z,33.31
2019-03-21T11:13:22.229Z,33.50
2019-03-21T11:14:22.192Z,32.92
2019-03-21T11:15:22.195Z,33.39
2019-03-21T11:16:22.149Z,33.68
2019-03-21T11:17:22.092Z,33.18
2019-03-21T11:18:22.067Z,33.47
2019-03-21T11:19:21.985Z,33.48
2019-03-21T11:20:21.937Z,33.29
2019-03-21T11:21:21.913Z,34.05
2019-03-21T11:22:21.860Z,33.55
2019-03-21T11:23:21.850Z,33.94
2019-03-21T11:24:21.775Z,34.72
2019-03-21T11:25:21.734Z,34.05
2019-03-21T11:26:21.695Z,36.65
2019-03-21T11:27:21.654Z,36.38
2019-03-21T11:28:21.655Z,34.84
2019-03-21T11:29:21.573Z,34.55
2019-03-21T11:30:21.524Z,33.97
2019-03-21T11:31:21.484Z,34.06
2019-03-21T11:32:21.445Z,32.91
2019-03-21T11:33:21.443Z,33.66
2019-03-21T11:34:21.367Z,34.34
2019-03-21T11:35:21.322Z,35.22
2019-03-21T11:36:21.282Z,36.09
2019-03-21T11:37:21.239Z,35.13
2019-03-21T11:38:21.228Z,35.71
2019-03-21T11:39:21.181Z,35.61
2019-03-21T11:40:21.162Z,34.76
2019-03-21T11:41:21.087Z,34.66
2019-03-21T11:42:21.046Z,33.70
2019-03-21T11:43:21.024Z,36.40
2019-03-21T11:44:20.953Z,36.59
2019-03-21T11:45:20.908Z,36.01
2019-03-21T11:46:20.872Z,35.14
2019-03-21T11:47:20.843Z,35.82
2019-03-21T11:48:20.825Z,34.47
2019-03-21T11:49:20.780Z,35.05
2019-03-21T11:50:20.757Z,33.87
2019-03-21T11:51:20.709Z,33.76
2019-03-21T11:52:20.649Z,32.99
2019-03-21T11:53:20.587Z,34.05
2019-03-21T11:54:20.563Z,34.05
2019-03-21T11:55:20.504Z,34.45
2019-03-21T11:56:20.484Z,34.06
2019-03-21T11:57:20.416Z,34.06
2019-03-21T11:58:20.376Z,34.84
2019-03-21T11:59:20.375Z,34.06
2019-03-21T12:00:20.301Z,33.95
2019-03-21T12:01:20.254Z,35.69
2019-03-21T12:02:27.047Z,37.33
2019-03-21T12:03:20.201Z,37.15
2019-03-21T12:04:20.130Z,37.93
2019-03-21T12:05:20.092Z,36.67
2019-03-21T12:06:20.047Z,36.19
2019-03-21T12:07:20.005Z,35.22
2019-03-21T12:08:19.996Z,34.38
2019-03-21T12:09:19.925Z,34.28
2019-03-21T12:10:19.881Z,34.08
2019-03-21T12:11:21.323Z,34.28
2019-03-21T12:12:19.800Z,34.66
2019-03-21T12:13:19.795Z,37.27
2019-03-21T12:14:19.715Z,37.65
2019-03-21T12:15:19.691Z,35.92
2019-03-21T12:16:19.635Z,35.71
2019-03-21T12:17:19.626Z,34.74
2019-03-21T12:18:19.554Z,33.98
2019-03-21T12:19:19.516Z,33.80
2019-03-21T12:20:19.511Z,33.98
2019-03-21T12:21:19.430Z,33.48
2019-03-21T12:22:29.584Z,35.03
2019-03-21T12:23:19.350Z,36.09
2019-03-21T12:24:19.341Z,34.84
2019-03-21T12:25:19.268Z,33.78
2019-03-21T12:26:19.222Z,34.36
2019-03-21T12:27:19.285Z,33.87
2019-03-21T12:28:19.146Z,34.05
2019-03-21T12:29:19.133Z,34.05
2019-03-21T12:30:19.064Z,34.05
2019-03-21T12:31:19.057Z,34.63
2019-03-21T12:32:18.980Z,34.63
2019-03-21T12:33:18.954Z,36.46
2019-03-21T12:34:18.928Z,37.81
2019-03-21T12:35:18.855Z,35.40
2019-03-21T12:36:18.861Z,35.32
2019-03-21T12:37:18.779Z,34.74
2019-03-21T12:38:18.729Z,34.86
2019-03-21T12:39:18.694Z,34.76
2019-03-21T12:40:18.646Z,33.97
2019-03-21T12:41:18.653Z,34.74
2019-03-21T12:42:18.569Z,34.16
2019-03-21T12:43:18.525Z,34.05
2019-03-21T12:44:18.480Z,34.24
2019-03-21T12:45:18.442Z,34.24
2019-03-21T12:46:18.441Z,34.63
2019-03-21T12:47:30.570Z,34.70
2019-03-21T12:48:18.319Z,35.67
2019-03-21T12:49:18.274Z,36.44
2019-03-21T12:50:18.234Z,35.88
2019-03-21T12:51:18.235Z,35.30
2019-03-21T12:52:18.153Z,35.03